CheckWX is a tool to help pilots better visualize weather data.  It is not intended as a substitute for an official pre-flight weather briefing.

02:31:56 UTC

EDJA METAR
Memmingen Allgau Airport
Memmingen, Germany
Current

6 hours ago

EDJA 172050Z 16003KT CAVOK 01/M05 Q1024
Observed
Feb-17 @ 20:50 UTC
Wind
  • 160° at 3 KTS
Visibility
10,000+ meters
Flight Rules
VFR
Cloud Levels
  • Clear skies
Temperature
C / 34°F
Dewpoint
-5°C / 23°F
Humidity
65%
Altimeter
30.24" Hg
Pressure
1023.92 hPa
Previous

6 hours ago

EDJA 172020Z VRB02KT CAVOK M01/M05 Q1024
Observed
Feb-17 @ 20:20 UTC
Wind
  • Variable at 2 KTS
Visibility
10,000+ meters
Flight Rules
VFR
Cloud Levels
  • Clear skies
Temperature
-1°C / 30°F
Dewpoint
-5°C / 23°F
Humidity
75%
Altimeter
30.24" Hg
Pressure
1023.92 hPa
Previous

7 hours ago

EDJA 171950Z 16003KT CAVOK M01/M06 Q1024
Observed
Feb-17 @ 19:50 UTC
Wind
  • 160° at 3 KTS
Visibility
10,000+ meters
Flight Rules
VFR
Cloud Levels
  • Clear skies
Temperature
-1°C / 30°F
Dewpoint
-6°C / 21°F
Humidity
69%
Altimeter
30.24" Hg
Pressure
1023.92 hPa